sensor_id;sensor_type;location;lat;lon;timestamp;P1;durP1;ratioP1;P2;durP2;ratioP2
31298;SDS011;17927;52.350;13.402;2024-02-26T00:01:59;9.75;;;7.53;;
31298;SDS011;17927;52.350;13.402;2024-02-26T00:04:24;12.32;;;7.25;;
31298;SDS011;17927;52.350;13.402;2024-02-26T00:06:50;10.80;;;7.00;;
31298;SDS011;17927;52.350;13.402;2024-02-26T00:09:16;10.32;;;7.20;;
31298;SDS011;17927;52.350;13.402;2024-02-26T00:11:41;9.13;;;6.63;;
31298;SDS011;17927;52.350;13.402;2024-02-26T00:14:06;10.70;;;7.70;;
31298;SDS011;17927;52.350;13.402;2024-02-26T00:16:32;10.57;;;6.93;;
31298;SDS011;17927;52.350;13.402;2024-02-26T00:18:57;11.82;;;7.75;;
31298;SDS011;17927;52.350;13.402;2024-02-26T00:21:22;12.98;;;7.90;;
31298;SDS011;17927;52.350;13.402;2024-02-26T00:23:49;13.00;;;8.13;;
31298;SDS011;17927;52.350;13.402;2024-02-26T00:26:15;11.07;;;7.53;;
31298;SDS011;17927;52.350;13.402;2024-02-26T00:28:40;9.68;;;7.78;;
31298;SDS011;17927;52.350;13.402;2024-02-26T00:31:06;9.98;;;8.15;;
31298;SDS011;17927;52.350;13.402;2024-02-26T00:33:31;10.23;;;7.88;;
31298;SDS011;17927;52.350;13.402;2024-02-26T00:35:56;11.35;;;8.02;;
31298;SDS011;17927;52.350;13.402;2024-02-26T00:38:21;11.45;;;7.95;;
31298;SDS011;17927;52.350;13.402;2024-02-26T00:40:47;9.73;;;7.82;;
31298;SDS011;17927;52.350;13.402;2024-02-26T00:43:12;12.98;;;8.50;;
31298;SDS011;17927;52.350;13.402;2024-02-26T00:45:37;13.80;;;8.63;;
31298;SDS011;17927;52.350;13.402;2024-02-26T00:48:02;12.70;;;7.95;;
31298;SDS011;17927;52.350;13.402;2024-02-26T00:50:32;13.32;;;8.32;;
31298;SDS011;17927;52.350;13.402;2024-02-26T00:52:57;10.70;;;8.07;;
31298;SDS011;17927;52.350;13.402;2024-02-26T00:55:23;12.45;;;9.40;;
31298;SDS011;17927;52.350;13.402;2024-02-26T00:57:48;11.70;;;8.70;;
31298;SDS011;17927;52.350;13.402;2024-02-26T01:00:13;13.65;;;9.70;;
31298;SDS011;17927;52.350;13.402;2024-02-26T01:02:39;15.50;;;9.40;;
31298;SDS011;17927;52.350;13.402;2024-02-26T01:05:06;15.48;;;8.88;;
31298;SDS011;17927;52.350;13.402;2024-02-26T01:07:32;11.70;;;9.13;;
31298;SDS011;17927;52.350;13.402;2024-02-26T01:10:00;12.20;;;9.10;;
31298;SDS011;17927;52.350;13.402;2024-02-26T01:12:30;12.65;;;9.32;;
31298;SDS011;17927;52.350;13.402;2024-02-26T01:14:55;12.40;;;8.77;;
31298;SDS011;17927;52.350;13.402;2024-02-26T01:17:21;10.27;;;7.80;;
31298;SDS011;17927;52.350;13.402;2024-02-26T01:19:46;12.88;;;9.82;;
31298;SDS011;17927;52.350;13.402;2024-02-26T01:22:11;12.60;;;9.80;;
31298;SDS011;17927;52.350;13.402;2024-02-26T01:24:36;11.95;;;8.45;;
31298;SDS011;17927;52.350;13.402;2024-02-26T01:27:02;12.18;;;9.63;;
31298;SDS011;17927;52.350;13.402;2024-02-26T01:29:27;12.48;;;9.10;;
31298;SDS011;17927;52.350;13.402;2024-02-26T01:31:52;12.65;;;8.98;;
31298;SDS011;17927;52.350;13.402;2024-02-26T01:34:18;15.90;;;9.30;;
31298;SDS011;17927;52.350;13.402;2024-02-26T01:36:43;11.45;;;9.63;;
31298;SDS011;17927;52.350;13.402;2024-02-26T01:39:08;12.68;;;9.15;;
31298;SDS011;17927;52.350;13.402;2024-02-26T01:41:37;11.65;;;8.18;;
31298;SDS011;17927;52.350;13.402;2024-02-26T01:44:02;10.88;;;8.20;;
31298;SDS011;17927;52.350;13.402;2024-02-26T01:46:28;11.88;;;8.82;;
31298;SDS011;17927;52.350;13.402;2024-02-26T01:48:54;11.18;;;7.82;;
31298;SDS011;17927;52.350;13.402;2024-02-26T01:51:20;8.80;;;7.90;;
31298;SDS011;17927;52.350;13.402;2024-02-26T01:53:45;13.70;;;8.43;;
31298;SDS011;17927;52.350;13.402;2024-02-26T01:56:11;8.57;;;7.18;;
31298;SDS011;17927;52.350;13.402;2024-02-26T01:58:37;11.27;;;8.40;;
31298;SDS011;17927;52.350;13.402;2024-02-26T02:01:02;13.20;;;8.73;;
31298;SDS011;17927;52.350;13.402;2024-02-26T02:03:28;10.30;;;8.88;;
31298;SDS011;17927;52.350;13.402;2024-02-26T02:05:55;12.00;;;7.20;;
31298;SDS011;17927;52.350;13.402;2024-02-26T02:08:20;9.55;;;7.28;;
31298;SDS011;17927;52.350;13.402;2024-02-26T02:10:47;8.88;;;7.70;;
31298;SDS011;17927;52.350;13.402;2024-02-26T02:13:15;10.05;;;7.35;;
31298;SDS011;17927;52.350;13.402;2024-02-26T02:15:40;8.05;;;7.13;;
31298;SDS011;17927;52.350;13.402;2024-02-26T02:18:06;8.60;;;7.55;;
31298;SDS011;17927;52.350;13.402;2024-02-26T02:20:32;7.18;;;6.45;;
31298;SDS011;17927;52.350;13.402;2024-02-26T02:22:58;10.73;;;7.18;;
31298;SDS011;17927;52.350;13.402;2024-02-26T02:25:24;8.50;;;7.60;;
31298;SDS011;17927;52.350;13.402;2024-02-26T02:27:49;9.95;;;7.65;;
31298;SDS011;17927;52.350;13.402;2024-02-26T02:30:15;11.63;;;6.45;;
31298;SDS011;17927;52.350;13.402;2024-02-26T02:32:41;8.20;;;6.47;;
31298;SDS011;17927;52.350;13.402;2024-02-26T02:35:07;8.45;;;6.57;;
31298;SDS011;17927;52.350;13.402;2024-02-26T02:37:32;8.20;;;6.63;;
31298;SDS011;17927;52.350;13.402;2024-02-26T02:39:57;6.57;;;5.95;;
31298;SDS011;17927;52.350;13.402;2024-02-26T02:42:23;7.13;;;6.22;;
31298;SDS011;17927;52.350;13.402;2024-02-26T02:44:48;7.45;;;6.50;;
31298;SDS011;17927;52.350;13.402;2024-02-26T02:47:14;8.23;;;5.97;;
31298;SDS011;17927;52.350;13.402;2024-02-26T02:49:39;7.07;;;6.30;;
31298;SDS011;17927;52.350;13.402;2024-02-26T02:52:04;8.43;;;6.75;;
31298;SDS011;17927;52.350;13.402;2024-02-26T02:54:29;8.90;;;6.50;;
31298;SDS011;17927;52.350;13.402;2024-02-26T02:56:55;8.48;;;6.70;;
31298;SDS011;17927;52.350;13.402;2024-02-26T02:59:20;6.93;;;6.25;;
31298;SDS011;17927;52.350;13.402;2024-02-26T03:01:45;7.28;;;6.43;;
31298;SDS011;17927;52.350;13.402;2024-02-26T03:04:10;8.35;;;6.75;;
31298;SDS011;17927;52.350;13.402;2024-02-26T03:06:36;9.88;;;6.30;;
31298;SDS011;17927;52.350;13.402;2024-02-26T03:09:01;7.50;;;6.38;;
31298;SDS011;17927;52.350;13.402;2024-02-26T03:11:26;9.93;;;6.75;;
31298;SDS011;17927;52.350;13.402;2024-02-26T03:13:52;6.97;;;6.28;;
31298;SDS011;17927;52.350;13.402;2024-02-26T03:16:17;9.32;;;6.32;;
31298;SDS011;17927;52.350;13.402;2024-02-26T03:18:42;9.02;;;6.80;;
31298;SDS011;17927;52.350;13.402;2024-02-26T03:21:08;7.68;;;6.70;;
31298;SDS011;17927;52.350;13.402;2024-02-26T03:23:33;6.13;;;5.53;;
31298;SDS011;17927;52.350;13.402;2024-02-26T03:26:02;6.07;;;5.53;;
31298;SDS011;17927;52.350;13.402;2024-02-26T03:28:28;6.35;;;5.75;;
31298;SDS011;17927;52.350;13.402;2024-02-26T03:30:53;6.65;;;5.18;;
31298;SDS011;17927;52.350;13.402;2024-02-26T03:33:19;7.07;;;5.38;;
31298;SDS011;17927;52.350;13.402;2024-02-26T03:35:44;6.80;;;5.20;;
31298;SDS011;17927;52.350;13.402;2024-02-26T03:38:09;7.85;;;5.70;;
31298;SDS011;17927;52.350;13.402;2024-02-26T03:40:34;6.05;;;5.53;;
31298;SDS011;17927;52.350;13.402;2024-02-26T03:43:00;5.18;;;4.70;;
31298;SDS011;17927;52.350;13.402;2024-02-26T03:45:25;5.55;;;5.05;;
31298;SDS011;17927;52.350;13.402;2024-02-26T03:47:51;6.10;;;5.20;;
31298;SDS011;17927;52.350;13.402;2024-02-26T03:50:16;6.30;;;4.90;;
31298;SDS011;17927;52.350;13.402;2024-02-26T03:52:41;5.68;;;5.18;;
31298;SDS011;17927;52.350;13.402;2024-02-26T03:55:06;6.47;;;5.55;;
31298;SDS011;17927;52.350;13.402;2024-02-26T03:57:32;5.63;;;4.57;;
31298;SDS011;17927;52.350;13.402;2024-02-26T03:59:58;4.95;;;4.45;;
31298;SDS011;17927;52.350;13.402;2024-02-26T04:02:23;5.32;;;4.90;;
31298;SDS011;17927;52.350;13.402;2024-02-26T04:04:48;6.15;;;5.47;;
31298;SDS011;17927;52.350;13.402;2024-02-26T04:07:14;5.53;;;5.00;;
31298;SDS011;17927;52.350;13.402;2024-02-26T04:09:39;5.45;;;4.95;;
31298;SDS011;17927;52.350;13.402;2024-02-26T04:12:04;5.53;;;4.57;;
31298;SDS011;17927;52.350;13.402;2024-02-26T04:14:30;5.68;;;4.68;;
31298;SDS011;17927;52.350;13.402;2024-02-26T04:16:55;5.07;;;4.40;;
31298;SDS011;17927;52.350;13.402;2024-02-26T04:19:20;5.43;;;4.93;;
31298;SDS011;17927;52.350;13.402;2024-02-26T04:21:46;5.40;;;5.00;;
31298;SDS011;17927;52.350;13.402;2024-02-26T04:24:11;5.75;;;5.25;;
31298;SDS011;17927;52.350;13.402;2024-02-26T04:26:36;5.43;;;5.03;;
31298;SDS011;17927;52.350;13.402;2024-02-26T04:29:02;4.85;;;4.45;;
31298;SDS011;17927;52.350;13.402;2024-02-26T04:31:27;5.20;;;4.68;;
31298;SDS011;17927;52.350;13.402;2024-02-26T04:33:52;5.40;;;4.93;;
31298;SDS011;17927;52.350;13.402;2024-02-26T04:36:17;5.28;;;4.78;;
31298;SDS011;17927;52.350;13.402;2024-02-26T04:38:43;6.00;;;5.40;;
31298;SDS011;17927;52.350;13.402;2024-02-26T04:41:08;6.20;;;5.00;;
31298;SDS011;17927;52.350;13.402;2024-02-26T04:43:34;7.43;;;4.93;;
31298;SDS011;17927;52.350;13.402;2024-02-26T04:45:59;6.00;;;5.45;;
31298;SDS011;17927;52.350;13.402;2024-02-26T04:48:24;6.18;;;5.57;;
31298;SDS011;17927;52.350;13.402;2024-02-26T04:50:49;6.10;;;5.50;;
31298;SDS011;17927;52.350;13.402;2024-02-26T04:53:15;6.40;;;5.53;;
31298;SDS011;17927;52.350;13.402;2024-02-26T04:55:40;9.68;;;6.63;;
31298;SDS011;17927;52.350;13.402;2024-02-26T04:58:05;6.88;;;5.90;;
31298;SDS011;17927;52.350;13.402;2024-02-26T05:00:30;8.02;;;6.35;;
31298;SDS011;17927;52.350;13.402;2024-02-26T05:02:56;9.35;;;6.70;;
31298;SDS011;17927;52.350;13.402;2024-02-26T05:05:21;6.15;;;5.55;;
31298;SDS011;17927;52.350;13.402;2024-02-26T05:07:46;6.10;;;5.50;;
31298;SDS011;17927;52.350;13.402;2024-02-26T05:10:12;8.05;;;5.75;;
31298;SDS011;17927;52.350;13.402;2024-02-26T05:12:37;5.75;;;5.25;;
31298;SDS011;17927;52.350;13.402;2024-02-26T05:15:03;7.43;;;5.97;;
31298;SDS011;17927;52.350;13.402;2024-02-26T05:17:28;5.82;;;5.28;;
31298;SDS011;17927;52.350;13.402;2024-02-26T05:19:54;5.78;;;5.18;;
31298;SDS011;17927;52.350;13.402;2024-02-26T05:22:19;7.72;;;5.75;;
31298;SDS011;17927;52.350;13.402;2024-02-26T05:24:44;7.03;;;5.97;;
31298;SDS011;17927;52.350;13.402;2024-02-26T05:27:10;6.07;;;5.47;;
31298;SDS011;17927;52.350;13.402;2024-02-26T05:29:35;6.82;;;5.78;;
31298;SDS011;17927;52.350;13.402;2024-02-26T05:32:00;6.10;;;5.32;;
31298;SDS011;17927;52.350;13.402;2024-02-26T05:34:34;6.32;;;5.68;;
31298;SDS011;17927;52.350;13.402;2024-02-26T05:36:59;6.25;;;5.65;;
31298;SDS011;17927;52.350;13.402;2024-02-26T05:39:24;7.22;;;6.53;;
31298;SDS011;17927;52.350;13.402;2024-02-26T05:41:49;6.32;;;5.72;;
31298;SDS011;17927;52.350;13.402;2024-02-26T05:44:15;7.32;;;6.28;;
31298;SDS011;17927;52.350;13.402;2024-02-26T05:46:41;9.18;;;6.78;;
31298;SDS011;17927;52.350;13.402;2024-02-26T05:49:07;9.30;;;6.60;;
31298;SDS011;17927;52.350;13.402;2024-02-26T05:51:32;11.18;;;6.40;;
31298;SDS011;17927;52.350;13.402;2024-02-26T05:53:57;9.05;;;6.43;;
31298;SDS011;17927;52.350;13.402;2024-02-26T05:56:23;9.07;;;6.88;;
31298;SDS011;17927;52.350;13.402;2024-02-26T05:58:48;12.35;;;6.40;;
31298;SDS011;17927;52.350;13.402;2024-02-26T06:01:15;6.78;;;5.55;;
31298;SDS011;17927;52.350;13.402;2024-02-26T06:03:40;6.97;;;6.28;;
31298;SDS011;17927;52.350;13.402;2024-02-26T06:06:06;8.55;;;5.95;;
31298;SDS011;17927;52.350;13.402;2024-02-26T06:08:31;7.32;;;6.32;;
31298;SDS011;17927;52.350;13.402;2024-02-26T06:10:56;9.38;;;6.15;;
31298;SDS011;17927;52.350;13.402;2024-02-26T06:13:21;10.77;;;6.82;;
31298;SDS011;17927;52.350;13.402;2024-02-26T06:15:47;8.95;;;7.47;;
31298;SDS011;17927;52.350;13.402;2024-02-26T06:18:12;10.85;;;6.13;;
31298;SDS011;17927;52.350;13.402;2024-02-26T06:20:37;9.63;;;6.50;;
31298;SDS011;17927;52.350;13.402;2024-02-26T06:23:02;8.15;;;7.35;;
31298;SDS011;17927;52.350;13.402;2024-02-26T06:25:28;8.30;;;6.28;;
31298;SDS011;17927;52.350;13.402;2024-02-26T06:27:53;9.80;;;7.13;;
31298;SDS011;17927;52.350;13.402;2024-02-26T06:30:19;10.57;;;6.55;;
31298;SDS011;17927;52.350;13.402;2024-02-26T06:32:45;9.50;;;6.30;;
31298;SDS011;17927;52.350;13.402;2024-02-26T06:35:10;10.98;;;6.85;;
31298;SDS011;17927;52.350;13.402;2024-02-26T06:37:36;9.90;;;6.30;;
31298;SDS011;17927;52.350;13.402;2024-02-26T06:40:01;15.40;;;6.78;;
31298;SDS011;17927;52.350;13.402;2024-02-26T06:42:31;18.33;;;6.38;;
31298;SDS011;17927;52.350;13.402;2024-02-26T06:44:57;8.93;;;7.22;;
31298;SDS011;17927;52.350;13.402;2024-02-26T06:47:22;12.52;;;7.43;;
31298;SDS011;17927;52.350;13.402;2024-02-26T06:49:48;9.70;;;7.30;;
31298;SDS011;17927;52.350;13.402;2024-02-26T06:52:13;13.10;;;7.50;;
31298;SDS011;17927;52.350;13.402;2024-02-26T06:54:38;7.95;;;7.20;;
31298;SDS011;17927;52.350;13.402;2024-02-26T06:57:04;10.85;;;7.30;;
31298;SDS011;17927;52.350;13.402;2024-02-26T06:59:29;9.48;;;8.23;;
31298;SDS011;17927;52.350;13.402;2024-02-26T07:01:54;12.52;;;8.77;;
31298;SDS011;17927;52.350;13.402;2024-02-26T07:04:19;12.70;;;9.40;;
31298;SDS011;17927;52.350;13.402;2024-02-26T07:06:45;12.88;;;8.93;;
31298;SDS011;17927;52.350;13.402;2024-02-26T07:09:11;15.32;;;8.43;;
31298;SDS011;17927;52.350;13.402;2024-02-26T07:11:37;14.63;;;9.07;;
31298;SDS011;17927;52.350;13.402;2024-02-26T07:14:02;11.27;;;8.85;;
31298;SDS011;17927;52.350;13.402;2024-02-26T07:16:27;15.40;;;10.02;;
31298;SDS011;17927;52.350;13.402;2024-02-26T07:18:53;16.90;;;10.35;;
31298;SDS011;17927;52.350;13.402;2024-02-26T07:21:18;16.42;;;10.40;;
31298;SDS011;17927;52.350;13.402;2024-02-26T07:23:43;20.50;;;9.50;;
31298;SDS011;17927;52.350;13.402;2024-02-26T07:26:08;11.82;;;9.77;;
31298;SDS011;17927;52.350;13.402;2024-02-26T07:28:34;13.43;;;9.32;;
31298;SDS011;17927;52.350;13.402;2024-02-26T07:30:59;16.55;;;9.82;;
31298;SDS011;17927;52.350;13.402;2024-02-26T07:33:24;11.43;;;9.40;;
31298;SDS011;17927;52.350;13.402;2024-02-26T07:35:49;14.50;;;9.15;;
31298;SDS011;17927;52.350;13.402;2024-02-26T07:38:15;13.30;;;8.77;;
31298;SDS011;17927;52.350;13.402;2024-02-26T07:40:40;9.75;;;8.75;;
31298;SDS011;17927;52.350;13.402;2024-02-26T07:43:05;14.95;;;9.88;;
31298;SDS011;17927;52.350;13.402;2024-02-26T07:45:30;12.18;;;9.35;;
31298;SDS011;17927;52.350;13.402;2024-02-26T07:47:56;16.52;;;11.30;;
31298;SDS011;17927;52.350;13.402;2024-02-26T07:50:21;14.30;;;10.48;;
31298;SDS011;17927;52.350;13.402;2024-02-26T07:52:46;14.27;;;11.18;;
31298;SDS011;17927;52.350;13.402;2024-02-26T07:55:11;15.55;;;11.48;;
31298;SDS011;17927;52.350;13.402;2024-02-26T07:57:37;16.90;;;11.10;;
31298;SDS011;17927;52.350;13.402;2024-02-26T08:00:02;11.65;;;9.90;;
31298;SDS011;17927;52.350;13.402;2024-02-26T08:02:28;13.48;;;10.55;;
31298;SDS011;17927;52.350;13.402;2024-02-26T08:04:53;15.63;;;11.70;;
31298;SDS011;17927;52.350;13.402;2024-02-26T08:07:18;17.40;;;12.45;;
31298;SDS011;17927;52.350;13.402;2024-02-26T08:09:45;14.02;;;11.35;;
31298;SDS011;17927;52.350;13.402;2024-02-26T08:12:11;14.43;;;10.68;;
31298;SDS011;17927;52.350;13.402;2024-02-26T08:14:36;15.70;;;12.23;;
31298;SDS011;17927;52.350;13.402;2024-02-26T08:17:01;18.63;;;11.63;;
31298;SDS011;17927;52.350;13.402;2024-02-26T08:19:26;14.75;;;11.10;;
31298;SDS011;17927;52.350;13.402;2024-02-26T08:21:52;14.38;;;11.55;;
31298;SDS011;17927;52.350;13.402;2024-02-26T08:24:17;15.13;;;11.43;;
31298;SDS011;17927;52.350;13.402;2024-02-26T08:26:42;17.05;;;12.50;;
31298;SDS011;17927;52.350;13.402;2024-02-26T08:29:08;15.95;;;10.95;;
31298;SDS011;17927;52.350;13.402;2024-02-26T08:31:33;16.55;;;12.13;;
31298;SDS011;17927;52.350;13.402;2024-02-26T08:33:58;16.05;;;11.88;;
31298;SDS011;17927;52.350;13.402;2024-02-26T08:36:24;16.50;;;12.77;;
31298;SDS011;17927;52.350;13.402;2024-02-26T08:38:49;16.58;;;12.43;;
31298;SDS011;17927;52.350;13.402;2024-02-26T08:41:14;20.58;;;13.10;;
31298;SDS011;17927;52.350;13.402;2024-02-26T08:43:39;19.42;;;12.68;;
31298;SDS011;17927;52.350;13.402;2024-02-26T08:46:08;16.95;;;11.65;;
31298;SDS011;17927;52.350;13.402;2024-02-26T08:48:34;18.40;;;13.70;;
31298;SDS011;17927;52.350;13.402;2024-02-26T08:51:00;19.15;;;12.57;;
31298;SDS011;17927;52.350;13.402;2024-02-26T08:53:25;21.08;;;13.23;;
31298;SDS011;17927;52.350;13.402;2024-02-26T08:55:51;18.33;;;13.02;;
31298;SDS011;17927;52.350;13.402;2024-02-26T08:58:17;20.98;;;12.95;;
31298;SDS011;17927;52.350;13.402;2024-02-26T09:00:42;15.95;;;12.15;;
31298;SDS011;17927;52.350;13.402;2024-02-26T09:03:07;16.95;;;12.30;;
31298;SDS011;17927;52.350;13.402;2024-02-26T09:05:32;21.65;;;12.77;;
31298;SDS011;17927;52.350;13.402;2024-02-26T09:07:58;15.82;;;11.85;;
31298;SDS011;17927;52.350;13.402;2024-02-26T09:10:23;17.40;;;11.57;;
31298;SDS011;17927;52.350;13.402;2024-02-26T09:12:48;16.20;;;10.88;;
31298;SDS011;17927;52.350;13.402;2024-02-26T09:15:14;15.10;;;11.35;;
31298;SDS011;17927;52.350;13.402;2024-02-26T09:17:39;18.50;;;12.50;;
31298;SDS011;17927;52.350;13.402;2024-02-26T09:20:04;15.23;;;12.57;;
31298;SDS011;17927;52.350;13.402;2024-02-26T09:22:31;17.38;;;11.75;;
31298;SDS011;17927;52.350;13.402;2024-02-26T09:24:56;17.23;;;11.98;;
31298;SDS011;17927;52.350;13.402;2024-02-26T09:27:21;20.88;;;13.18;;
31298;SDS011;17927;52.350;13.402;2024-02-26T09:29:48;20.85;;;12.65;;
31298;SDS011;17927;52.350;13.402;2024-02-26T09:32:13;19.05;;;12.57;;
31298;SDS011;17927;52.350;13.402;2024-02-26T09:34:40;16.75;;;12.20;;
31298;SDS011;17927;52.350;13.402;2024-02-26T09:37:05;23.20;;;14.27;;
31298;SDS011;17927;52.350;13.402;2024-02-26T09:39:30;17.92;;;12.45;;
31298;SDS011;17927;52.350;13.402;2024-02-26T09:41:56;20.00;;;12.82;;
31298;SDS011;17927;52.350;13.402;2024-02-26T09:44:22;18.20;;;12.93;;
31298;SDS011;17927;52.350;13.402;2024-02-26T09:46:50;21.65;;;14.23;;
31298;SDS011;17927;52.350;13.402;2024-02-26T09:49:18;21.95;;;14.48;;
31298;SDS011;17927;52.350;13.402;2024-02-26T09:51:45;18.83;;;13.52;;
31298;SDS011;17927;52.350;13.402;2024-02-26T09:54:14;15.52;;;12.32;;
31298;SDS011;17927;52.350;13.402;2024-02-26T09:56:40;17.05;;;11.98;;
31298;SDS011;17927;52.350;13.402;2024-02-26T09:59:06;18.17;;;11.88;;
31298;SDS011;17927;52.350;13.402;2024-02-26T10:01:38;16.27;;;11.52;;
31298;SDS011;17927;52.350;13.402;2024-02-26T10:04:06;20.52;;;12.85;;
31298;SDS011;17927;52.350;13.402;2024-02-26T10:06:33;17.40;;;12.35;;
31298;SDS011;17927;52.350;13.402;2024-02-26T10:08:59;17.23;;;11.82;;
31298;SDS011;17927;52.350;13.402;2024-02-26T10:11:25;16.50;;;11.32;;
31298;SDS011;17927;52.350;13.402;2024-02-26T10:13:51;15.95;;;10.68;;
31298;SDS011;17927;52.350;13.402;2024-02-26T10:16:16;11.25;;;10.02;;
31298;SDS011;17927;52.350;13.402;2024-02-26T10:18:51;15.95;;;10.18;;
31298;SDS011;17927;52.350;13.402;2024-02-26T10:21:19;14.60;;;9.57;;
31298;SDS011;17927;52.350;13.402;2024-02-26T10:23:45;16.27;;;9.98;;
31298;SDS011;17927;52.350;13.402;2024-02-26T10:26:12;12.70;;;10.27;;
31298;SDS011;17927;52.350;13.402;2024-02-26T10:28:39;12.25;;;9.70;;
31298;SDS011;17927;52.350;13.402;2024-02-26T10:31:05;14.65;;;10.05;;
31298;SDS011;17927;52.350;13.402;2024-02-26T10:33:32;13.35;;;9.52;;
31298;SDS011;17927;52.350;13.402;2024-02-26T10:35:58;13.88;;;9.48;;
31298;SDS011;17927;52.350;13.402;2024-02-26T10:38:23;16.73;;;10.48;;
31298;SDS011;17927;52.350;13.402;2024-02-26T10:40:49;16.90;;;9.75;;
31298;SDS011;17927;52.350;13.402;2024-02-26T10:43:14;15.32;;;9.35;;
31298;SDS011;17927;52.350;13.402;2024-02-26T10:45:41;11.13;;;8.93;;
31298;SDS011;17927;52.350;13.402;2024-02-26T10:48:12;12.10;;;8.85;;
31298;SDS011;17927;52.350;13.402;2024-02-26T10:50:38;13.82;;;9.05;;
31298;SDS011;17927;52.350;13.402;2024-02-26T10:53:05;16.17;;;8.65;;
31298;SDS011;17927;52.350;13.402;2024-02-26T10:55:40;14.45;;;8.30;;
31298;SDS011;17927;52.350;13.402;2024-02-26T10:58:06;10.57;;;7.80;;
31298;SDS011;17927;52.350;13.402;2024-02-26T11:00:33;8.45;;;6.68;;
31298;SDS011;17927;52.350;13.402;2024-02-26T11:02:59;10.73;;;7.20;;
31298;SDS011;17927;52.350;13.402;2024-02-26T11:05:28;9.35;;;6.35;;
31298;SDS011;17927;52.350;13.402;2024-02-26T11:07:53;8.45;;;6.50;;
31298;SDS011;17927;52.350;13.402;2024-02-26T11:10:20;7.15;;;6.00;;
31298;SDS011;17927;52.350;13.402;2024-02-26T11:12:46;7.95;;;7.15;;
31298;SDS011;17927;52.350;13.402;2024-02-26T11:15:12;8.18;;;6.50;;
31298;SDS011;17927;52.350;13.402;2024-02-26T11:17:38;10.13;;;6.07;;
31298;SDS011;17927;52.350;13.402;2024-02-26T11:20:04;9.38;;;7.18;;
31298;SDS011;17927;52.350;13.402;2024-02-26T11:22:34;11.20;;;6.57;;
31298;SDS011;17927;52.350;13.402;2024-02-26T11:24:59;8.60;;;6.43;;
31298;SDS011;17927;52.350;13.402;2024-02-26T11:27:36;6.82;;;6.20;;
31298;SDS011;17927;52.350;13.402;2024-02-26T11:30:08;7.70;;;6.40;;
31298;SDS011;17927;52.350;13.402;2024-02-26T11:32:35;8.52;;;6.05;;
31298;SDS011;17927;52.350;13.402;2024-02-26T11:35:01;9.07;;;6.30;;
31298;SDS011;17927;52.350;13.402;2024-02-26T11:37:30;7.20;;;5.40;;
31298;SDS011;17927;52.350;13.402;2024-02-26T11:39:55;6.03;;;5.43;;
31298;SDS011;17927;52.350;13.402;2024-02-26T11:42:24;10.50;;;5.95;;
31298;SDS011;17927;52.350;13.402;2024-02-26T11:44:50;6.35;;;5.70;;
31298;SDS011;17927;52.350;13.402;2024-02-26T11:49:45;8.98;;;5.88;;
31298;SDS011;17927;52.350;13.402;2024-02-26T11:52:10;7.05;;;5.20;;
31298;SDS011;17927;52.350;13.402;2024-02-26T11:54:40;5.95;;;4.75;;
31298;SDS011;17927;52.350;13.402;2024-02-26T11:57:25;5.55;;;4.97;;
31298;SDS011;17927;52.350;13.402;2024-02-26T12:00:10;6.78;;;5.05;;
31298;SDS011;17927;52.350;13.402;2024-02-26T12:02:38;6.97;;;5.45;;
31298;SDS011;17927;52.350;13.402;2024-02-26T12:05:06;7.00;;;5.10;;
31298;SDS011;17927;52.350;13.402;2024-02-26T12:07:35;7.00;;;4.68;;
31298;SDS011;17927;52.350;13.402;2024-02-26T12:13:15;6.47;;;4.07;;
31298;SDS011;17927;52.350;13.402;2024-02-26T12:15:45;7.85;;;4.97;;
31298;SDS011;17927;52.350;13.402;2024-02-26T12:18:19;5.72;;;4.38;;
31298;SDS011;17927;52.350;13.402;2024-02-26T12:20:45;5.50;;;4.50;;
31298;SDS011;17927;52.350;13.402;2024-02-26T12:23:15;6.80;;;5.03;;
31298;SDS011;17927;52.350;13.402;2024-02-26T12:25:44;5.13;;;4.25;;
31298;SDS011;17927;52.350;13.402;2024-02-26T12:28:09;7.47;;;4.18;;
31298;SDS011;17927;52.350;13.402;2024-02-26T12:30:34;4.10;;;3.70;;
31298;SDS011;17927;52.350;13.402;2024-02-26T12:33:00;6.55;;;4.28;;
31298;SDS011;17927;52.350;13.402;2024-02-26T12:35:28;4.13;;;3.72;;
31298;SDS011;17927;52.350;13.402;2024-02-26T12:37:56;4.03;;;3.67;;
31298;SDS011;17927;52.350;13.402;2024-02-26T12:40:22;5.20;;;4.40;;
31298;SDS011;17927;52.350;13.402;2024-02-26T12:42:48;3.78;;;3.38;;
31298;SDS011;17927;52.350;13.402;2024-02-26T12:45:14;4.00;;;3.65;;
31298;SDS011;17927;52.350;13.402;2024-02-26T12:47:44;7.32;;;3.78;;
31298;SDS011;17927;52.350;13.402;2024-02-26T12:50:14;5.47;;;3.50;;
31298;SDS011;17927;52.350;13.402;2024-02-26T12:52:44;6.20;;;3.83;;
31298;SDS011;17927;52.350;13.402;2024-02-26T12:55:11;6.32;;;3.65;;
31298;SDS011;17927;52.350;13.402;2024-02-26T12:57:39;6.32;;;3.40;;
31298;SDS011;17927;52.350;13.402;2024-02-26T13:00:06;5.70;;;3.70;;
31298;SDS011;17927;52.350;13.402;2024-02-26T13:02:36;5.25;;;3.60;;
31298;SDS011;17927;52.350;13.402;2024-02-26T13:05:03;4.68;;;3.75;;
31298;SDS011;17927;52.350;13.402;2024-02-26T13:07:30;5.07;;;3.58;;
31298;SDS011;17927;52.350;13.402;2024-02-26T13:09:56;4.15;;;3.55;;
31298;SDS011;17927;52.350;13.402;2024-02-26T13:12:21;4.20;;;3.80;;
31298;SDS011;17927;52.350;13.402;2024-02-26T13:14:47;6.25;;;3.80;;
31298;SDS011;17927;52.350;13.402;2024-02-26T13:17:12;4.35;;;3.95;;
31298;SDS011;17927;52.350;13.402;2024-02-26T13:19:37;4.47;;;4.07;;
31298;SDS011;17927;52.350;13.402;2024-02-26T13:22:03;4.72;;;4.03;;
31298;SDS011;17927;52.350;13.402;2024-02-26T13:24:29;4.72;;;3.88;;
31298;SDS011;17927;52.350;13.402;2024-02-26T13:26:56;5.43;;;3.75;;
31298;SDS011;17927;52.350;13.402;2024-02-26T13:29:21;5.75;;;4.15;;
31298;SDS011;17927;52.350;13.402;2024-02-26T13:31:46;5.53;;;4.75;;
31298;SDS011;17927;52.350;13.402;2024-02-26T13:34:22;6.28;;;5.13;;
31298;SDS011;17927;52.350;13.402;2024-02-26T13:36:52;5.55;;;5.00;;
31298;SDS011;17927;52.350;13.402;2024-02-26T13:39:23;10.45;;;5.78;;
31298;SDS011;17927;52.350;13.402;2024-02-26T13:41:50;6.53;;;5.75;;
31298;SDS011;17927;52.350;13.402;2024-02-26T13:44:16;6.10;;;5.50;;
31298;SDS011;17927;52.350;13.402;2024-02-26T13:46:41;17.30;;;6.45;;
31298;SDS011;17927;52.350;13.402;2024-02-26T13:49:08;9.32;;;6.15;;
31298;SDS011;17927;52.350;13.402;2024-02-26T13:51:34;7.50;;;6.35;;
31298;SDS011;17927;52.350;13.402;2024-02-26T13:54:01;7.90;;;6.53;;
31298;SDS011;17927;52.350;13.402;2024-02-26T13:56:26;7.47;;;6.78;;
31298;SDS011;17927;52.350;13.402;2024-02-26T13:58:52;10.82;;;7.25;;
31298;SDS011;17927;52.350;13.402;2024-02-26T14:01:17;12.07;;;6.88;;
31298;SDS011;17927;52.350;13.402;2024-02-26T14:03:42;9.65;;;6.95;;
31298;SDS011;17927;52.350;13.402;2024-02-26T14:06:08;10.57;;;6.68;;
31298;SDS011;17927;52.350;13.402;2024-02-26T14:08:33;9.80;;;7.03;;
31298;SDS011;17927;52.350;13.402;2024-02-26T14:10:58;7.80;;;7.10;;
31298;SDS011;17927;52.350;13.402;2024-02-26T14:13:25;18.42;;;9.40;;
31298;SDS011;17927;52.350;13.402;2024-02-26T14:15:50;14.13;;;6.93;;
31298;SDS011;17927;52.350;13.402;2024-02-26T14:18:15;10.18;;;8.07;;
31298;SDS011;17927;52.350;13.402;2024-02-26T14:20:40;13.55;;;7.82;;
31298;SDS011;17927;52.350;13.402;2024-02-26T14:23:06;12.63;;;8.20;;
31298;SDS011;17927;52.350;13.402;2024-02-26T14:25:31;8.95;;;7.30;;